Time;durP1;ratioP1;P1;durP2;ratioP2;P2;SDS_P1;SDS_P2;PMS_P1;PMS_P2;Temp;Humidity;BMP_temperature;BMP_pressure;BME280_temperature;BME280_humidity;BME280_pressure;Samples;Min_cycle;Max_cycle;Signal;HPM_P1;HPM_P2
2023/04/26 00:01:57;;;;;;;;;;;;;;;22.57;28.99;97529.03;5063891;28;19929;-88
2023/04/26 00:04:24;;;;;;;;;;;;;;;22.60;27.80;97536.59;5069713;28;20406;-88
2023/04/26 00:06:50;;;;;;;;;;;;;;;23.22;26.00;97531.81;5060146;28;19959;-89
2023/04/26 00:09:18;;;;;;;;;;;;;;;23.27;26.26;97529.25;5060189;28;20427;-89
2023/04/26 00:11:44;;;;;;;;;;;;;;;22.76;28.29;97529.41;5067776;28;19955;-88
2023/04/26 00:14:10;;;;;;;;;;;;;;;23.24;26.93;97534.94;5053926;28;19921;-88
2023/04/26 00:16:36;;;;;;;;;;;;;;;23.21;27.03;97533.81;5069550;28;19928;-88
2023/04/26 00:19:03;;;;;;;;;;;;;;;23.36;26.63;97537.06;5069541;28;19920;-88
2023/04/26 00:21:29;;;;;;;;;;;;;;;22.85;27.01;97540.78;5059160;28;19932;-88
2023/04/26 00:23:55;;;;;;;;;;;;;;;22.73;27.88;97545.09;5061194;28;20338;-88
2023/04/26 00:26:21;;;;;;;;;;;;;;;23.20;27.56;97543.44;5065941;28;20393;-88
2023/04/26 00:28:47;;;;;;;;;;;;;;;23.02;27.40;97540.31;5069765;28;19925;-88
2023/04/26 00:31:14;;;;;;;;;;;;;;;22.75;28.68;97547.44;5067579;28;19921;-89
2023/04/26 00:33:40;;;;;;;;;;;;;;;22.48;27.21;97548.44;5064697;28;19920;-89
2023/04/26 00:36:06;;;;;;;;;;;;;;;22.71;28.10;97546.75;5057572;28;20304;-89
2023/04/26 00:38:32;;;;;;;;;;;;;;;22.76;27.30;97543.41;5055878;28;19921;-89
2023/04/26 00:40:58;;;;;;;;;;;;;;;23.17;26.42;97543.53;5064796;28;19931;-89
2023/04/26 00:43:24;;;;;;;;;;;;;;;23.60;25.26;97543.97;5066871;28;20007;-89
2023/04/26 00:45:50;;;;;;;;;;;;;;;23.30;26.79;97545.16;5072740;28;19969;-89
2023/04/26 00:48:17;;;;;;;;;;;;;;;23.54;25.95;97550.56;5054141;28;19931;-89
2023/04/26 00:50:43;;;;;;;;;;;;;;;23.30;26.18;97547.19;5070745;28;19916;-89
2023/04/26 00:53:09;;;;;;;;;;;;;;;22.82;26.31;97552.88;5066522;28;19927;-89
2023/04/26 00:55:36;;;;;;;;;;;;;;;22.74;26.44;97560.63;5074546;28;19928;-90
2023/04/26 00:58:02;;;;;;;;;;;;;;;22.79;27.35;97553.72;5063409;28;19932;-89
2023/04/26 01:00:28;;;;;;;;;;;;;;;23.01;25.88;97554.78;5106101;27;19921;-89
2023/04/26 01:02:54;;;;;;;;;;;;;;;23.10;25.53;97557.72;5069702;28;19955;-89
2023/04/26 01:05:20;;;;;;;;;;;;;;;23.20;25.21;97562.25;5065901;28;19921;-89
2023/04/26 01:07:46;;;;;;;;;;;;;;;23.26;26.02;97552.88;5074303;28;19924;-89
2023/04/26 01:10:12;;;;;;;;;;;;;;;23.38;25.76;97559.81;5069429;28;19928;-89
2023/04/26 01:12:39;;;;;;;;;;;;;;;23.51;24.21;97557.03;5079191;28;20265;-88
2023/04/26 01:15:05;;;;;;;;;;;;;;;22.95;25.15;97556.50;5072493;28;19960;-89
2023/04/26 01:17:31;;;;;;;;;;;;;;;22.75;25.07;97567.81;5074526;28;19920;-89
2023/04/26 01:19:57;;;;;;;;;;;;;;;22.96;25.65;97567.28;5068655;28;20376;-88
2023/04/26 01:22:23;;;;;;;;;;;;;;;22.50;24.53;97575.97;5067175;28;19921;-89
2023/04/26 01:24:50;;;;;;;;;;;;;;;22.64;25.62;97579.25;5069673;28;19924;-88
2023/04/26 01:27:16;;;;;;;;;;;;;;;22.32;25.55;97582.00;5073934;28;19924;-88
2023/04/26 01:29:42;;;;;;;;;;;;;;;22.23;25.94;97586.59;5070491;28;19921;-88
2023/04/26 01:32:08;;;;;;;;;;;;;;;21.75;26.58;97587.97;5071577;28;19973;-88
2023/04/26 01:34:34;;;;;;;;;;;;;;;21.74;27.79;97586.41;5065325;28;20393;-86
2023/04/26 01:37:00;;;;;;;;;;;;;;;21.83;25.51;97586.63;5060918;28;20046;-88
2023/04/26 01:39:26;;;;;;;;;;;;;;;21.97;26.26;97588.38;5064337;28;19966;-88
2023/04/26 01:41:52;;;;;;;;;;;;;;;22.43;24.85;97590.91;5058541;28;19977;-89
2023/04/26 01:44:18;;;;;;;;;;;;;;;22.34;25.86;97593.53;5064471;28;19940;-88
2023/04/26 01:46:44;;;;;;;;;;;;;;;22.80;23.25;97594.50;5068369;28;20368;-89
2023/04/26 01:49:11;;;;;;;;;;;;;;;22.74;23.71;97599.81;5073640;28;19928;-88
2023/04/26 01:51:37;;;;;;;;;;;;;;;22.81;23.92;97596.84;5070767;28;19921;-88
2023/04/26 01:54:03;;;;;;;;;;;;;;;22.35;23.70;97597.91;5072638;28;19928;-87
2023/04/26 01:56:29;;;;;;;;;;;;;;;21.44;26.13;97599.78;5071376;28;20303;-88
2023/04/26 01:58:56;;;;;;;;;;;;;;;21.22;26.96;97604.97;5065375;28;19921;-87
2023/04/26 02:01:22;;;;;;;;;;;;;;;21.18;26.44;97596.69;5069532;28;19956;-88
2023/04/26 02:03:48;;;;;;;;;;;;;;;22.01;24.72;97603.03;5071724;28;19935;-88
2023/04/26 02:06:14;;;;;;;;;;;;;;;22.13;26.06;97602.38;5067894;28;20003;-88
2023/04/26 02:08:40;;;;;;;;;;;;;;;21.30;27.92;97610.03;5071315;28;20439;-86
2023/04/26 02:11:06;;;;;;;;;;;;;;;21.51;27.02;97610.84;5076035;28;20025;-88
2023/04/26 02:13:32;;;;;;;;;;;;;;;21.18;27.73;97607.84;5070316;28;19952;-88
2023/04/26 02:15:58;;;;;;;;;;;;;;;20.63;29.79;97608.31;5067796;28;19960;-87
2023/04/26 02:18:24;;;;;;;;;;;;;;;21.07;27.77;97606.47;5064491;28;19956;-89
2023/04/26 02:20:50;;;;;;;;;;;;;;;21.28;26.85;97615.22;5076642;28;20015;-88
2023/04/26 02:23:16;;;;;;;;;;;;;;;21.87;25.80;97615.31;5074988;28;20016;-89
2023/04/26 02:25:46;;;;;;;;;;;;;;;21.47;26.32;97610.88;5070562;28;19948;-89
2023/04/26 02:28:12;;;;;;;;;;;;;;;21.95;25.22;97610.38;5068065;28;20409;-89
2023/04/26 02:30:38;;;;;;;;;;;;;;;21.63;26.36;97610.22;5071532;28;20342;-88
2023/04/26 02:33:04;;;;;;;;;;;;;;;21.77;26.00;97613.50;5071619;28;19963;-90
2023/04/26 02:35:30;;;;;;;;;;;;;;;21.61;27.94;97613.41;5064859;28;20023;-89
2023/04/26 02:37:56;;;;;;;;;;;;;;;21.79;25.33;97607.47;5081706;28;20355;-89
2023/04/26 02:40:23;;;;;;;;;;;;;;;21.89;25.20;97620.50;5070354;28;20015;-88
2023/04/26 02:42:49;;;;;;;;;;;;;;;21.98;26.49;97618.66;5068984;28;19920;-88
2023/04/26 02:45:15;;;;;;;;;;;;;;;21.93;26.23;97621.19;5068054;28;19978;-88
2023/04/26 02:47:41;;;;;;;;;;;;;;;21.98;25.49;97618.66;5072903;28;19924;-89
2023/04/26 02:50:07;;;;;;;;;;;;;;;20.83;27.30;97610.41;5067293;28;19924;-89
2023/04/26 02:52:34;;;;;;;;;;;;;;;20.80;28.33;97617.63;5068107;28;19920;-88
2023/04/26 02:55:01;;;;;;;;;;;;;;;20.25;28.68;97614.47;5072539;28;19927;-88
2023/04/26 02:57:27;;;;;;;;;;;;;;;20.59;27.04;97612.38;5076699;28;19931;-89
2023/04/26 02:59:54;;;;;;;;;;;;;;;21.19;26.66;97619.81;5074598;28;20361;-89
2023/04/26 03:02:20;;;;;;;;;;;;;;;21.80;25.62;97623.81;5068415;28;19924;-89
2023/04/26 03:04:46;;;;;;;;;;;;;;;22.06;24.56;97624.13;5071209;28;19926;-89
2023/04/26 03:07:12;;;;;;;;;;;;;;;22.22;24.42;97624.97;5077219;28;19924;-89
2023/04/26 03:09:38;;;;;;;;;;;;;;;22.61;23.44;97633.28;5068001;28;20399;-89
2023/04/26 03:12:07;;;;;;;;;;;;;;;22.64;23.46;97626.84;5076538;28;19921;-89
2023/04/26 03:14:34;;;;;;;;;;;;;;;22.66;24.17;97629.22;5072192;28;19921;-89
2023/04/26 03:17:00;;;;;;;;;;;;;;;22.61;23.98;97635.31;5073733;28;20260;-89
2023/04/26 03:19:29;;;;;;;;;;;;;;;22.63;23.58;97630.06;5065635;28;20007;-90
2023/04/26 03:21:55;;;;;;;;;;;;;;;22.30;24.28;97634.78;5059964;28;20012;-87
2023/04/26 03:24:21;;;;;;;;;;;;;;;22.17;24.58;97636.66;5061675;28;19989;-89
2023/04/26 03:26:47;;;;;;;;;;;;;;;22.35;24.16;97639.06;5069981;28;19970;-89
2023/04/26 03:29:13;;;;;;;;;;;;;;;22.26;24.32;97644.47;5073830;28;20330;-89
2023/04/26 03:31:39;;;;;;;;;;;;;;;22.39;24.42;97654.56;5071233;28;20029;-89
2023/04/26 03:34:06;;;;;;;;;;;;;;;22.28;24.60;97656.81;5069673;28;19916;-89
2023/04/26 03:36:33;;;;;;;;;;;;;;;22.25;24.11;97659.66;5076628;28;20028;-89
2023/04/26 03:38:59;;;;;;;;;;;;;;;21.95;24.79;97660.69;5089298;28;19913;-89
2023/04/26 03:41:25;;;;;;;;;;;;;;;21.88;25.37;97660.81;5072565;28;20273;-89
2023/04/26 03:43:51;;;;;;;;;;;;;;;22.01;24.87;97665.34;5068796;28;19920;-89
2023/04/26 03:46:17;;;;;;;;;;;;;;;22.26;23.85;97667.66;5079048;28;19924;-89
2023/04/26 03:48:43;;;;;;;;;;;;;;;22.15;24.73;97667.06;5074719;28;19916;-89
2023/04/26 03:51:09;;;;;;;;;;;;;;;22.09;24.16;97668.00;5074067;28;20299;-89
2023/04/26 03:53:35;;;;;;;;;;;;;;;21.92;24.94;97669.91;5074722;28;19923;-88
2023/04/26 03:56:01;;;;;;;;;;;;;;;22.14;24.65;97676.69;5073071;28;20017;-88
2023/04/26 03:58:27;;;;;;;;;;;;;;;22.27;24.23;97683.19;5069643;28;19975;-89
2023/04/26 04:00:59;;;;;;;;;;;;;;;22.34;24.37;97683.03;5061846;28;19928;-89
2023/04/26 04:03:26;;;;;;;;;;;;;;;22.44;24.02;97684.81;5073199;28;19921;-89
2023/04/26 04:05:52;;;;;;;;;;;;;;;22.68;24.01;97682.75;5056203;28;20403;-90
2023/04/26 04:08:18;;;;;;;;;;;;;;;22.79;23.60;97685.28;5071302;28;20455;-92
2023/04/26 04:10:44;;;;;;;;;;;;;;;22.61;23.89;97689.25;5068701;28;20325;-90
2023/04/26 04:13:10;;;;;;;;;;;;;;;22.63;23.96;97694.44;5067223;28;19920;-88
2023/04/26 04:15:36;;;;;;;;;;;;;;;22.95;23.53;97697.28;5070416;28;19921;-87
2023/04/26 04:18:03;;;;;;;;;;;;;;;23.06;23.60;97700.63;5069438;28;20391;-88
2023/04/26 04:20:29;;;;;;;;;;;;;;;23.13;23.27;97700.44;5066355;28;19921;-88
2023/04/26 04:22:56;;;;;;;;;;;;;;;22.55;25.16;97706.97;5067462;28;19920;-88
2023/04/26 04:25:23;;;;;;;;;;;;;;;22.66;24.17;97702.75;5067702;28;20388;-89
2023/04/26 04:27:50;;;;;;;;;;;;;;;22.57;24.50;97710.91;5066323;28;20022;-89
2023/04/26 04:30:16;;;;;;;;;;;;;;;22.89;23.94;97715.03;5068689;28;19951;-89
2023/04/26 04:32:45;;;;;;;;;;;;;;;22.93;23.61;97716.53;5065080;28;19956;-89
2023/04/26 04:35:12;;;;;;;;;;;;;;;22.91;23.31;97715.41;5068861;28;19920;-88
2023/04/26 04:37:38;;;;;;;;;;;;;;;22.79;24.39;97721.66;5076285;28;19920;-90
2023/04/26 04:40:04;;;;;;;;;;;;;;;22.63;23.88;97719.63;5065599;28;20291;-88
2023/04/26 04:42:31;;;;;;;;;;;;;;;22.64;24.77;97723.97;5065868;28;19936;-91
2023/04/26 04:44:58;;;;;;;;;;;;;;;22.74;23.01;97730.56;5069751;28;20437;-88
2023/04/26 04:47:24;;;;;;;;;;;;;;;22.28;24.24;97729.53;5069238;28;19921;-92
2023/04/26 04:49:50;;;;;;;;;;;;;;;22.37;24.96;97731.72;5066695;28;19920;-89
2023/04/26 04:52:18;;;;;;;;;;;;;;;22.65;24.85;97729.16;5065367;28;19917;-89
2023/04/26 04:54:44;;;;;;;;;;;;;;;22.40;24.70;97733.69;5061262;28;19921;-88
2023/04/26 04:57:10;;;;;;;;;;;;;;;22.54;25.42;97734.16;5062056;28;19931;-84
2023/04/26 04:59:36;;;;;;;;;;;;;;;22.67;25.41;97735.13;5062484;28;19920;-84
2023/04/26 05:02:05;;;;;;;;;;;;;;;22.83;25.38;97731.56;5064275;28;19921;-88
2023/04/26 05:04:32;;;;;;;;;;;;;;;22.79;25.92;97730.06;5098437;28;19921;-88
2023/04/26 05:06:59;;;;;;;;;;;;;;;22.87;24.50;97734.28;5071359;28;19917;-88
2023/04/26 05:09:26;;;;;;;;;;;;;;;23.31;24.58;97740.00;5071306;28;19921;-88
2023/04/26 05:11:52;;;;;;;;;;;;;;;23.44;23.73;97745.75;5060793;28;19928;-88
2023/04/26 05:14:18;;;;;;;;;;;;;;;23.17;24.58;97745.19;5072932;28;20272;-87
2023/04/26 05:16:44;;;;;;;;;;;;;;;23.28;25.25;97746.50;5073335;28;19921;-87
2023/04/26 05:19:12;;;;;;;;;;;;;;;23.19;23.83;97745.53;5072732;28;19916;-87
2023/04/26 05:21:38;;;;;;;;;;;;;;;22.60;25.09;97748.44;5073238;28;19924;-87
2023/04/26 05:24:04;;;;;;;;;;;;;;;21.78;27.07;97749.22;5072398;28;19920;-87
2023/04/26 05:26:30;;;;;;;;;;;;;;;21.08;30.54;97742.78;5073306;28;19925;-87
2023/04/26 05:28:56;;;;;;;;;;;;;;;21.17;27.02;97737.47;5073459;28;20364;-87
2023/04/26 05:31:22;;;;;;;;;;;;;;;20.29;30.63;97765.75;5071928;28;19917;-87
2023/04/26 05:33:48;;;;;;;;;;;;;;;20.93;27.31;97757.34;5072687;28;20336;-87
2023/04/26 05:36:14;;;;;;;;;;;;;;;21.73;26.16;97755.28;5071616;28;19928;-87
2023/04/26 05:38:40;;;;;;;;;;;;;;;22.31;24.71;97756.59;5070448;28;20284;-88
2023/04/26 05:41:06;;;;;;;;;;;;;;;22.73;24.10;97763.38;5073047;28;19916;-88
2023/04/26 05:43:33;;;;;;;;;;;;;;;21.67;25.33;97761.78;5074332;28;19920;-87
2023/04/26 05:46:00;;;;;;;;;;;;;;;21.84;27.46;97758.69;5073244;28;19925;-87
2023/04/26 05:48:26;;;;;;;;;;;;;;;22.50;26.34;97761.41;5075342;28;19916;-87
2023/04/26 05:50:52;;;;;;;;;;;;;;;22.51;25.39;97767.81;5073442;28;19920;-87
2023/04/26 05:53:19;;;;;;;;;;;;;;;22.79;24.22;97767.25;5075022;28;19924;-87
2023/04/26 05:55:45;;;;;;;;;;;;;;;20.41;33.75;97760.44;5067832;28;19928;-87
2023/04/26 05:58:11;;;;;;;;;;;;;;;19.90;28.43;97771.75;5060690;28;20292;-87
2023/04/26 06:00:37;;;;;;;;;;;;;;;20.68;30.16;97771.63;5069446;28;19985;-88
2023/04/26 06:03:04;;;;;;;;;;;;;;;20.78;30.20;97765.13;5057286;28;19916;-87
2023/04/26 06:05:30;;;;;;;;;;;;;;;20.25;30.96;97770.59;5067266;28;19912;-87
2023/04/26 06:07:56;;;;;;;;;;;;;;;20.71;30.69;97776.38;5076148;28;19917;-86
2023/04/26 06:10:23;;;;;;;;;;;;;;;21.15;28.12;97772.59;5076167;28;20304;-88
2023/04/26 06:12:49;;;;;;;;;;;;;;;21.48;27.32;97773.69;5077893;28;19912;-87
2023/04/26 06:15:15;;;;;;;;;;;;;;;22.03;25.96;97780.31;5076404;28;20276;-88
2023/04/26 06:17:41;;;;;;;;;;;;;;;21.99;25.32;97784.41;5074515;28;20421;-88
2023/04/26 06:20:11;;;;;;;;;;;;;;;21.96;27.77;97777.66;5076193;28;19982;-88
2023/04/26 06:22:37;;;;;;;;;;;;;;;22.51;24.55;97774.19;5076263;28;19923;-88
2023/04/26 06:25:04;;;;;;;;;;;;;;;22.33;24.62;97784.97;5075168;28;19955;-88
2023/04/26 06:27:30;;;;;;;;;;;;;;;20.52;28.72;97785.38;5076473;28;20367;-87
2023/04/26 06:29:56;;;;;;;;;;;;;;;21.69;27.87;97782.50;5076313;28;20372;-88
2023/04/26 06:32:22;;;;;;;;;;;;;;;22.09;29.13;97775.03;5072334;28;19929;-88
2023/04/26 06:34:48;;;;;;;;;;;;;;;22.17;24.14;97770.88;5066873;28;19998;-88
2023/04/26 06:37:15;;;;;;;;;;;;;;;20.93;29.97;97788.84;5056176;28;20319;-88
2023/04/26 06:39:41;;;;;;;;;;;;;;;19.81;27.80;97779.78;5068115;28;20403;-88
2023/04/26 06:42:07;;;;;;;;;;;;;;;21.06;26.03;97773.13;5078785;28;19916;-88
2023/04/26 06:44:33;;;;;;;;;;;;;;;20.39;28.16;97781.59;5071161;28;19917;-87
2023/04/26 06:46:59;;;;;;;;;;;;;;;20.49;27.29;97775.09;5068994;28;20436;-89
2023/04/26 06:49:25;;;;;;;;;;;;;;;21.51;25.96;97782.00;5074800;28;20316;-88
2023/04/26 06:51:51;;;;;;;;;;;;;;;22.89;24.27;97783.03;5075656;28;19985;-88
2023/04/26 06:54:18;;;;;;;;;;;;;;;21.45;29.24;97780.13;5073987;28;19963;-88
2023/04/26 06:56:44;;;;;;;;;;;;;;;22.47;26.34;97779.09;5075984;28;19925;-88
2023/04/26 06:59:10;;;;;;;;;;;;;;;22.89;24.91;97777.44;5075579;28;19917;-88
2023/04/26 07:01:37;;;;;;;;;;;;;;;22.90;25.01;97781.78;5057245;28;19989;-88
2023/04/26 07:04:06;;;;;;;;;;;;;;;23.09;23.63;97775.38;5069582;28;20443;-88
2023/04/26 07:06:32;;;;;;;;;;;;;;;21.21;29.06;97788.44;5068384;28;20296;-89
2023/04/26 07:08:58;;;;;;;;;;;;;;;21.27;32.15;97791.56;5063012;28;19931;-90
2023/04/26 07:11:25;;;;;;;;;;;;;;;20.89;25.55;97779.72;5074624;28;19991;-89
2023/04/26 07:13:51;;;;;;;;;;;;;;;21.59;24.63;97779.88;5075301;28;19917;-89
2023/04/26 07:16:17;;;;;;;;;;;;;;;22.39;27.13;97788.81;5074914;28;19920;-89
2023/04/26 07:18:43;;;;;;;;;;;;;;;22.03;28.85;97782.34;5075414;28;19920;-89
2023/04/26 07:21:09;;;;;;;;;;;;;;;20.15;31.57;97788.19;5074819;28;19917;-88
2023/04/26 07:23:35;;;;;;;;;;;;;;;19.15;38.32;97810.50;5074620;28;19917;-89
2023/04/26 07:26:03;;;;;;;;;;;;;;;20.75;28.21;97793.88;5074415;28;19971;-88
2023/04/26 07:28:29;;;;;;;;;;;;;;;21.66;29.07;97790.94;5074986;28;20354;-88
2023/04/26 07:30:56;;;;;;;;;;;;;;;21.78;25.65;97782.75;5074921;28;20019;-88
2023/04/26 07:33:22;;;;;;;;;;;;;;;22.05;24.68;97793.88;5075167;28;19946;-89
2023/04/26 07:35:55;;;;;;;;;;;;;;;21.04;29.67;97786.72;5074505;28;20341;-89
2023/04/26 07:38:21;;;;;;;;;;;;;;;21.65;25.38;97798.53;5074813;28;19920;-88
2023/04/26 07:40:48;;;;;;;;;;;;;;;19.96;27.95;97804.31;5073848;28;20295;-89
2023/04/26 07:43:14;;;;;;;;;;;;;;;21.03;23.98;97793.47;5073845;28;19921;-88
2023/04/26 07:45:40;;;;;;;;;;;;;;;19.81;35.11;97796.50;5074598;28;19947;-89
2023/04/26 07:48:06;;;;;;;;;;;;;;;21.42;27.45;97808.91;5074732;28;19959;-88
2023/04/26 07:50:32;;;;;;;;;;;;;;;21.20;25.73;97803.63;5074843;28;19916;-89
2023/04/26 07:52:58;;;;;;;;;;;;;;;21.37;23.16;97792.63;5074472;28;19963;-88
2023/04/26 07:55:25;;;;;;;;;;;;;;;21.74;26.84;97800.78;5073704;28;19925;-88
2023/04/26 07:57:51;;;;;;;;;;;;;;;21.82;22.91;97797.44;5074020;28;19924;-88
2023/04/26 08:00:17;;;;;;;;;;;;;;;21.61;24.93;97808.97;5056202;28;19928;-88
2023/04/26 08:02:46;;;;;;;;;;;;;;;22.25;24.59;97813.47;5054446;28;20054;-88
2023/04/26 08:05:13;;;;;;;;;;;;;;;21.67;29.71;97812.09;5054314;28;20376;-88
2023/04/26 08:07:40;;;;;;;;;;;;;;;21.41;25.44;97804.50;5057277;28;20280;-88
2023/04/26 08:10:06;;;;;;;;;;;;;;;21.82;25.27;97816.22;5073529;28;19920;-89
2023/04/26 08:12:33;;;;;;;;;;;;;;;23.29;25.67;97814.53;5071447;28;19920;-89
2023/04/26 08:15:00;;;;;;;;;;;;;;;23.72;23.32;97815.13;5074168;28;19970;-89
2023/04/26 08:17:26;;;;;;;;;;;;;;;23.71;27.34;97816.34;5074453;28;20432;-89
2023/04/26 08:19:52;;;;;;;;;;;;;;;23.70;24.10;97820.38;5073883;28;19986;-89
2023/04/26 08:22:18;;;;;;;;;;;;;;;22.50;22.55;97802.59;5073985;28;20390;-88
2023/04/26 08:24:49;;;;;;;;;;;;;;;22.38;24.63;97811.66;5074197;28;19916;-90
2023/04/26 08:27:16;;;;;;;;;;;;;;;22.57;24.00;97824.84;5072929;28;19924;-89
2023/04/26 08:29:42;;;;;;;;;;;;;;;22.10;22.21;97812.19;5074158;28;19924;-89
2023/04/26 08:32:08;;;;;;;;;;;;;;;21.97;24.94;97814.78;5074321;28;19969;-88
2023/04/26 08:34:34;;;;;;;;;;;;;;;21.59;23.18;97816.19;5073760;28;20003;-89
2023/04/26 08:37:00;;;;;;;;;;;;;;;22.56;22.08;97812.88;5073970;28;19924;-88
2023/04/26 08:39:26;;;;;;;;;;;;;;;21.73;26.86;97832.72;5073787;28;19917;-88
2023/04/26 08:41:54;;;;;;;;;;;;;;;21.75;27.89;97828.28;5072646;28;19943;-89
2023/04/26 08:44:25;;;;;;;;;;;;;;;21.76;25.37;97823.50;5073804;28;19916;-89
2023/04/26 08:47:00;;;;;;;;;;;;;;;21.43;29.09;97830.81;5073361;28;19916;-90
2023/04/26 08:49:38;;;;;;;;;;;;;;;21.69;23.54;97826.41;5073563;28;19916;-89
2023/04/26 08:52:07;;;;;;;;;;;;;;;22.35;25.51;97827.28;5074073;28;20389;-88
2023/04/26 08:54:33;;;;;;;;;;;;;;;22.67;26.19;97824.66;5073601;28;19917;-89
2023/04/26 08:57:00;;;;;;;;;;;;;;;22.79;24.21;97822.44;5072505;28;20010;-89
2023/04/26 08:59:28;;;;;;;;;;;;;;;23.17;20.99;97826.41;5073675;28;20383;-87
2023/04/26 09:01:54;;;;;;;;;;;;;;;23.27;23.12;97830.97;5073754;28;19927;-88
2023/04/26 09:04:20;;;;;;;;;;;;;;;23.25;27.91;97839.81;5073881;28;19920;-88
2023/04/26 09:06:48;;;;;;;;;;;;;;;22.82;22.76;97824.38;5073721;28;19917;-88
2023/04/26 09:09:17;;;;;;;;;;;;;;;23.17;20.57;97818.00;5073668;28;20030;-89
2023/04/26 09:11:56;;;;;;;;;;;;;;;23.23;22.29;97824.66;5072685;28;19916;-90
2023/04/26 09:14:23;;;;;;;;;;;;;;;22.18;21.14;97822.78;5080566;28;19927;-88
2023/04/26 09:16:49;;;;;;;;;;;;;;;19.60;34.05;97861.53;5074018;28;19916;-89
2023/04/26 09:19:15;;;;;;;;;;;;;;;19.85;30.24;97856.56;5077320;28;19924;-87
2023/04/26 09:21:43;;;;;;;;;;;;;;;19.78;27.82;97856.63;5076562;28;19923;-88
2023/04/26 09:24:09;;;;;;;;;;;;;;;20.24;25.86;97847.84;5077583;28;20402;-88
2023/04/26 09:26:36;;;;;;;;;;;;;;;20.55;28.20;97854.28;5078341;28;20295;-88
2023/04/26 09:29:12;;;;;;;;;;;;;;;21.92;26.31;97849.59;5078759;28;19912;-89
2023/04/26 09:31:40;;;;;;;;;;;;;;;22.44;27.21;97841.50;5076362;28;19920;-88
2023/04/26 09:34:07;;;;;;;;;;;;;;;23.18;22.73;97845.56;5059316;28;19916;-89
2023/04/26 09:36:45;;;;;;;;;;;;;;;22.92;25.90;97840.94;5066886;28;19917;-88
2023/04/26 09:39:11;;;;;;;;;;;;;;;23.73;22.39;97836.34;5109465;28;20294;-87
2023/04/26 09:41:44;;;;;;;;;;;;;;;23.00;22.08;97844.38;5076015;28;20133;-88
2023/04/26 09:44:19;;;;;;;;;;;;;;;21.80;29.45;97836.19;5076906;28;19920;-88
2023/04/26 09:46:56;;;;;;;;;;;;;;;23.13;24.56;97834.09;5076720;28;20372;-88
2023/04/26 09:49:22;;;;;;;;;;;;;;;23.92;23.36;97827.03;5076791;28;20383;-88
2023/04/26 09:52:00;;;;;;;;;;;;;;;22.11;33.44;97838.91;5076959;28;19920;-88
2023/04/26 09:54:40;;;;;;;;;;;;;;;21.14;36.25;97849.97;5076421;28;19920;-88
2023/04/26 09:57:06;;;;;;;;;;;;;;;20.22;32.33;97847.47;5061174;28;20009;-88
2023/04/26 09:59:39;;;;;;;;;;;;;;;20.64;28.01;97846.22;5056577;28;19917;-88
2023/04/26 10:02:09;;;;;;;;;;;;;;;21.21;25.79;97835.91;5056687;28;19924;-89
2023/04/26 10:04:35;;;;;;;;;;;;;;;22.29;25.83;97839.38;5056497;28;20450;-88
2023/04/26 10:07:01;;;;;;;;;;;;;;;22.87;25.84;97838.63;5055633;28;19921;-87
2023/04/26 10:09:27;;;;;;;;;;;;;;;22.48;25.72;97827.41;5065685;28;19971;-88
2023/04/26 10:11:53;;;;;;;;;;;;;;;21.37;25.26;97828.94;5072203;28;19927;-89
2023/04/26 10:14:19;;;;;;;;;;;;;;;22.00;26.02;97847.50;5076295;28;19939;-88
2023/04/26 10:16:45;;;;;;;;;;;;;;;21.17;28.77;97832.38;5076644;28;19963;-87
2023/04/26 10:19:12;;;;;;;;;;;;;;;22.35;25.91;97835.66;5076205;28;19916;-88
2023/04/26 10:21:40;;;;;;;;;;;;;;;22.60;26.48;97833.19;5076217;28;19920;-89
2023/04/26 10:24:06;;;;;;;;;;;;;;;22.94;24.74;97840.53;5076093;28;19961;-88
2023/04/26 10:26:46;;;;;;;;;;;;;;;22.48;27.35;97835.81;5075043;28;19925;-87
2023/04/26 10:29:12;;;;;;;;;;;;;;;22.95;25.83;97842.88;5075686;28;19919;-88
2023/04/26 10:31:57;;;;;;;;;;;;;;;22.78;24.13;97835.63;5076212;28;19920;-88
2023/04/26 10:34:23;;;;;;;;;;;;;;;24.05;24.20;97839.13;5076253;28;19912;-88
2023/04/26 10:37:07;;;;;;;;;;;;;;;23.77;25.30;97834.22;5074756;28;19921;-88
2023/04/26 10:39:33;;;;;;;;;;;;;;;22.89;25.14;97830.63;5075884;28;19920;-87
2023/04/26 10:42:22;;;;;;;;;;;;;;;22.71;24.07;97835.78;5074429;28;20015;-88
2023/04/26 10:44:48;;;;;;;;;;;;;;;22.27;28.12;97842.59;5075884;28;19963;-88
2023/04/26 10:47:35;;;;;;;;;;;;;;;22.49;24.25;97840.19;5074557;28;19916;-88
2023/04/26 10:50:03;;;;;;;;;;;;;;;23.61;22.94;97836.22;5075757;28;20383;-87
2023/04/26 10:52:29;;;;;;;;;;;;;;;23.07;24.40;97844.22;5072861;28;19920;-89
2023/04/26 10:54:59;;;;;;;;;;;;;;;22.26;24.15;97843.84;5068325;28;19917;-87
2023/04/26 10:57:45;;;;;;;;;;;;;;;22.24;25.92;97849.03;5055114;28;19924;-86
2023/04/26 11:00:15;;;;;;;;;;;;;;;20.82;24.20;97851.59;5055417;28;19927;-88
2023/04/26 11:02:44;;;;;;;;;;;;;;;20.50;25.65;97849.97;5074297;28;19960;-87
2023/04/26 11:05:10;;;;;;;;;;;;;;;20.30;29.94;97864.94;5075391;28;19923;-87
2023/04/26 11:07:36;;;;;;;;;;;;;;;22.16;25.83;97847.59;5074308;28;20380;-88
2023/04/26 11:10:06;;;;;;;;;;;;;;;23.20;22.70;97845.94;5075091;28;19924;-87
2023/04/26 11:12:32;;;;;;;;;;;;;;;23.28;22.24;97838.97;5075231;28;19938;-87
2023/04/26 11:14:58;;;;;;;;;;;;;;;23.47;22.03;97845.75;5074990;28;19921;-86
2023/04/26 11:17:24;;;;;;;;;;;;;;;23.18;26.65;97848.38;5074899;28;19917;-86
2023/04/26 11:19:50;;;;;;;;;;;;;;;23.85;24.31;97860.06;5074057;28;19924;-87
2023/04/26 11:22:20;;;;;;;;;;;;;;;23.38;22.03;97853.97;5073953;28;19946;-87
2023/04/26 11:24:46;;;;;;;;;;;;;;;24.10;22.68;97853.88;5073972;28;19923;-88
2023/04/26 11:27:12;;;;;;;;;;;;;;;24.02;24.37;97851.22;5074472;28;19924;-88
2023/04/26 11:29:38;;;;;;;;;;;;;;;25.55;22.37;97836.50;5074905;28;19921;-87
2023/04/26 11:32:05;;;;;;;;;;;;;;;25.14;24.38;97832.50;5073293;28;20442;-87
2023/04/26 11:34:36;;;;;;;;;;;;;;;25.69;21.07;97838.88;5074591;28;19923;-86
2023/04/26 11:37:03;;;;;;;;;;;;;;;23.93;21.99;97853.06;5074640;28;19959;-86
2023/04/26 11:39:30;;;;;;;;;;;;;;;22.05;25.94;97846.22;5074492;28;20379;-87
2023/04/26 11:42:06;;;;;;;;;;;;;;;22.30;23.71;97852.94;5072078;28;19916;-87
2023/04/26 11:44:32;;;;;;;;;;;;;;;22.10;24.82;97863.28;5073944;28;20287;-86
2023/04/26 11:47:05;;;;;;;;;;;;;;;21.12;29.85;97869.16;5074758;28;20288;-87
2023/04/26 11:49:31;;;;;;;;;;;;;;;21.71;21.05;97866.69;5074309;28;19917;-88
2023/04/26 11:51:58;;;;;;;;;;;;;;;21.22;29.67;97882.19;5073414;28;19920;-87
2023/04/26 11:54:33;;;;;;;;;;;;;;;21.24;24.31;97882.56;5059275;28;19928;-87
2023/04/26 11:57:00;;;;;;;;;;;;;;;21.38;25.52;97886.38;5054378;28;20403;-87
2023/04/26 11:59:28;;;;;;;;;;;;;;;22.82;21.68;97883.16;5069747;28;19925;-87
2023/04/26 12:01:54;;;;;;;;;;;;;;;23.08;24.40;97869.00;5065980;28;19990;-87
2023/04/26 12:04:28;;;;;;;;;;;;;;;22.01;20.23;97872.22;5067713;28;19929;-90
2023/04/26 12:06:54;;;;;;;;;;;;;;;22.73;23.08;97866.16;5073826;28;20341;-89
2023/04/26 12:09:27;;;;;;;;;;;;;;;24.11;20.67;97873.06;5071047;28;19955;-87
2023/04/26 12:11:59;;;;;;;;;;;;;;;23.15;26.14;97859.66;5073355;28;19989;-87
2023/04/26 12:14:32;;;;;;;;;;;;;;;23.62;20.50;97849.03;5058928;28;19924;-89
2023/04/26 12:16:59;;;;;;;;;;;;;;;21.70;27.41;97867.91;5054261;28;19921;-88
2023/04/26 12:19:25;;;;;;;;;;;;;;;20.67;30.13;97874.09;5057128;28;19916;-87
2023/04/26 12:21:52;;;;;;;;;;;;;;;21.81;22.21;97873.31;5071932;28;19955;-88
2023/04/26 12:24:22;;;;;;;;;;;;;;;20.52;25.83;97880.22;5073704;28;19927;-89
2023/04/26 12:26:48;;;;;;;;;;;;;;;19.86;32.17;97883.19;5072984;28;20011;-85
2023/04/26 12:29:14;;;;;;;;;;;;;;;20.18;28.16;97887.72;5070714;28;19920;-89
2023/04/26 12:31:40;;;;;;;;;;;;;;;21.52;26.49;97881.34;5072289;28;19944;-90
2023/04/26 12:34:07;;;;;;;;;;;;;;;22.56;22.93;97876.44;5064797;28;19936;-89
2023/04/26 12:36:33;;;;;;;;;;;;;;;21.90;30.43;97880.00;5073729;28;19928;-86
2023/04/26 12:39:02;;;;;;;;;;;;;;;21.45;24.49;97870.28;5072855;28;19939;-88
2023/04/26 12:41:28;;;;;;;;;;;;;;;20.74;27.67;97887.16;5066244;28;19925;-88
2023/04/26 12:43:54;;;;;;;;;;;;;;;20.45;27.04;97875.50;5073021;28;19920;-88
2023/04/26 12:46:20;;;;;;;;;;;;;;;21.01;30.64;97868.47;5072160;28;20058;-87
2023/04/26 12:48:46;;;;;;;;;;;;;;;22.16;25.58;97885.94;5069993;28;19927;-87